Manvel, Texas
Current Conditions -  °F | °C
As of 7:53 AM on Friday 28 Nov 2014 (Local Time) from KLVJ Reporting Station
Clear Clear  
Wind Chill: 51°   Ceiling: Unl
Heat Index: 51°   Visibility: 10mi
Dew Point: 49°   Wind: 7mph
Humidity: 92%   Direction: 90°E
Pressure: 30.37"   Gusts: NA
Location:  29.46°N, 95.36°W
Report Text: KLVJ 281353Z AUTO 09006KT 10SM CLR 11/09 A3037 RMK AO2 SLP282 T01060094
Loading
Personal Weather Stations






























Interactive Weather Map New forecast layout! Learn more

10-Day Weather Forecast

Advertisements
Track Severe Weather on mobile